Time;durP1;ratioP1;P1;durP2;ratioP2;P2;SDS_P1;SDS_P2;PMS_P1;PMS_P2;Temp;Humidity;BMP_temperature;BMP_pressure;BME280_temperature;BME280_humidity;BME280_pressure;Samples;Min_cycle;Max_cycle;Signal;HPM_P1;HPM_P2
2022/09/18 00:01:00;;;;;;;6.53;2.22;;;;;;;9.67;86.91;98351.78;7393598;19;20035;-73
2022/09/18 00:03:27;;;;;;;6.05;2.08;;;;;;;9.70;86.77;98351.47;7394503;19;20059;-71
2022/09/18 00:05:54;;;;;;;5.05;2.70;;;;;;;9.71;86.63;98361.03;7394448;19;20039;-72
2022/09/18 00:08:21;;;;;;;12.10;2.20;;;;;;;9.72;86.31;98346.88;7395917;19;20018;-72
2022/09/18 00:10:47;;;;;;;3.83;2.15;;;;;;;9.77;86.44;98359.59;7392923;19;20010;-71
2022/09/18 00:13:14;;;;;;;6.53;2.30;;;;;;;9.65;86.23;98351.09;7393559;19;20688;-72
2022/09/18 00:15:41;;;;;;;9.43;2.60;;;;;;;9.75;85.99;98361.59;7395372;19;20030;-72
2022/09/18 00:18:08;;;;;;;7.68;2.08;;;;;;;9.76;86.18;98358.78;7395598;19;20022;-71
2022/09/18 00:20:35;;;;;;;2.78;1.92;;;;;;;9.76;86.47;98358.78;7396001;19;20007;-72
2022/09/18 00:23:02;;;;;;;5.20;2.15;;;;;;;9.66;85.79;98358.88;7392063;19;20035;-72
2022/09/18 00:25:30;;;;;;;6.90;1.83;;;;;;;9.68;85.05;98354.25;7393591;19;20043;-71
2022/09/18 00:27:57;;;;;;;4.55;2.17;;;;;;;9.74;85.21;98350.19;7390256;19;20011;-72
2022/09/18 00:30:24;;;;;;;7.13;1.83;;;;;;;9.76;85.72;98352.69;7388197;19;20027;-72
2022/09/18 00:32:50;;;;;;;9.30;1.92;;;;;;;9.70;85.65;98346.19;7391974;19;20038;-72
2022/09/18 00:35:18;;;;;;;13.13;2.38;;;;;;;9.74;85.71;98354.63;7392791;19;20014;-72
2022/09/18 00:37:45;;;;;;;11.80;2.17;;;;;;;9.70;85.63;98353.28;7390770;19;20018;-72
2022/09/18 00:40:12;;;;;;;8.82;2.20;;;;;;;9.69;86.26;98352.47;7393455;19;20014;-73
2022/09/18 00:42:38;;;;;;;9.88;2.40;;;;;;;9.71;86.53;98354.94;7391090;19;20015;-74
2022/09/18 00:45:05;;;;;;;4.68;2.40;;;;;;;9.62;85.57;98354.03;7386922;19;20018;-72
2022/09/18 00:47:37;;;;;;;6.63;2.22;;;;;;;9.63;85.64;98350.41;7388524;19;20035;-72
2022/09/18 00:50:10;;;;;;;5.43;2.38;;;;;;;9.66;85.69;98355.38;7390885;19;20025;-75
2022/09/18 00:52:51;;;;;;;11.05;3.42;;;;;;;9.67;84.27;98351.78;7387757;19;20061;-72
2022/09/18 00:55:22;;;;;;;6.15;2.72;;;;;;;9.67;84.77;98355.25;7388600;19;20392;-72
2022/09/18 00:57:55;;;;;;;7.82;2.78;;;;;;;9.56;83.40;98362.56;7390769;19;20014;-74
2022/09/18 01:00:22;;;;;;;16.05;2.70;;;;;;;9.63;84.78;98353.03;7387918;19;20018;-73
2022/09/18 01:02:49;;;;;;;9.43;2.15;;;;;;;9.66;84.68;98355.38;7383478;19;20450;-72
2022/09/18 01:05:26;;;;;;;10.30;1.85;;;;;;;9.65;83.93;98351.09;7390597;19;20014;-72
2022/09/18 01:08:26;;;;;;;10.52;2.22;;;;;;;9.66;83.49;98358.88;7389275;19;20391;-72
2022/09/18 01:11:26;;;;;;;4.72;2.00;;;;;;;9.75;84.26;98361.59;7389183;19;20541;-72
2022/09/18 01:14:08;;;;;;;11.25;2.10;;;;;;;9.69;83.46;98357.75;7389050;19;20019;-72
2022/09/18 01:16:37;;;;;;;9.60;2.70;;;;;;;9.74;83.28;98352.84;7385833;19;20035;-72
2022/09/18 01:19:38;;;;;;;5.35;2.03;;;;;;;9.73;83.95;98358.28;7383829;19;20786;-74
2022/09/18 01:22:39;;;;;;;6.43;1.90;;;;;;;9.81;84.16;98367.09;7389282;19;20086;-72
2022/09/18 01:25:43;;;;;;;6.97;2.10;;;;;;;9.79;84.78;98365.59;7385009;19;20026;-73
2022/09/18 01:28:19;;;;;;;8.23;1.98;;;;;;;9.76;83.97;98363.25;7387556;19;20560;-74
2022/09/18 01:30:47;;;;;;;8.38;2.55;;;;;;;9.78;84.51;98371.84;7383781;19;20047;-71
2022/09/18 01:33:41;;;;;;;9.20;2.13;;;;;;;9.78;83.71;98372.69;7387111;19;20038;-73
2022/09/18 01:36:10;;;;;;;7.82;2.47;;;;;;;9.79;84.88;98358.47;7381182;19;20015;-71
2022/09/18 01:39:02;;;;;;;8.30;2.33;;;;;;;9.76;84.69;98355.31;7387072;19;20034;-73
2022/09/18 01:41:29;;;;;;;8.07;2.00;;;;;;;9.68;82.48;98350.78;7385147;19;20014;-73
2022/09/18 01:44:04;;;;;;;13.25;2.20;;;;;;;9.69;83.58;98349.81;7385632;19;20653;-72
2022/09/18 01:46:32;;;;;;;5.63;1.67;;;;;;;9.65;81.77;98351.91;7383417;19;20658;-73
2022/09/18 01:49:05;;;;;;;6.85;1.60;;;;;;;9.66;83.91;98343.03;7382596;19;20372;-72
2022/09/18 01:51:48;;;;;;;7.28;1.65;;;;;;;9.58;82.06;98353.50;7385205;19;20470;-72
2022/09/18 01:54:22;;;;;;;10.00;1.67;;;;;;;9.41;82.39;98351.69;7385546;19;20800;-73
2022/09/18 01:57:00;;;;;;;5.63;1.80;;;;;;;9.38;82.03;98350.16;7385370;19;20050;-73
2022/09/18 01:59:32;;;;;;;12.45;1.85;;;;;;;9.35;82.53;98339.91;7385108;19;20014;-73
2022/09/18 02:02:12;;;;;;;2.53;1.10;;;;;;;9.31;81.46;98346.44;7386964;19;20011;-73
2022/09/18 02:04:42;;;;;;;5.10;1.48;;;;;;;9.38;83.00;98338.78;7382394;19;20048;-72
2022/09/18 02:07:25;;;;;;;7.57;2.53;;;;;;;9.39;84.25;98337.78;7383197;19;20077;-72
2022/09/18 02:09:52;;;;;;;6.90;1.58;;;;;;;9.31;81.67;98335.88;7383087;19;20038;-72
2022/09/18 02:12:22;;;;;;;2.38;1.00;;;;;;;9.42;83.50;98334.84;7385930;19;20039;-72
2022/09/18 02:14:54;;;;;;;3.63;1.42;;;;;;;9.41;83.06;98333.19;7384987;19;20011;-72
2022/09/18 02:17:46;;;;;;;4.00;1.80;;;;;;;9.37;83.00;98327.41;7384465;19;20021;-72
2022/09/18 02:20:19;;;;;;;4.55;1.17;;;;;;;9.37;82.70;98332.66;7387468;19;20504;-72
2022/09/18 02:22:49;;;;;;;11.90;2.53;;;;;;;9.42;84.44;98330.38;7387298;19;20010;-72
2022/09/18 02:25:21;;;;;;;3.92;1.80;;;;;;;9.41;83.35;98331.38;7377157;19;20549;-73
2022/09/18 02:27:48;;;;;;;4.37;1.67;;;;;;;9.53;84.15;98334.66;7382770;19;20022;-73
2022/09/18 02:30:15;;;;;;;4.00;2.00;;;;;;;9.48;85.34;98334.25;7387215;19;20011;-73
2022/09/18 02:32:43;;;;;;;7.55;2.03;;;;;;;9.54;84.02;98324.91;7387196;19;20370;-73
2022/09/18 02:35:10;;;;;;;6.45;1.77;;;;;;;9.50;84.20;98331.47;7385524;19;20155;-73
2022/09/18 02:37:46;;;;;;;7.80;2.35;;;;;;;9.51;84.58;98326.03;7384832;19;20016;-74
2022/09/18 02:40:23;;;;;;;8.57;1.70;;;;;;;9.58;84.36;98321.78;7386065;19;20007;-75
2022/09/18 02:42:59;;;;;;;6.15;1.80;;;;;;;9.62;84.08;98325.81;7379818;19;20395;-72
2022/09/18 02:45:38;;;;;;;6.13;1.90;;;;;;;9.64;84.14;98334.41;7384731;19;20477;-72
2022/09/18 02:48:17;;;;;;;5.38;2.00;;;;;;;9.65;84.17;98330.78;7382953;19;20813;-75
2022/09/18 02:50:54;;;;;;;3.45;1.70;;;;;;;9.61;84.72;98334.72;7385456;19;20019;-73
2022/09/18 02:53:24;;;;;;;6.45;1.58;;;;;;;9.67;85.23;98330.66;7387969;19;20014;-72
2022/09/18 02:56:05;;;;;;;4.15;1.67;;;;;;;9.63;85.24;98345.94;7390282;19;20362;-73
2022/09/18 02:58:40;;;;;;;6.13;1.90;;;;;;;9.61;83.87;98347.94;7384777;19;20375;-72
2022/09/18 03:01:09;;;;;;;8.35;2.05;;;;;;;9.65;84.14;98346.63;7392003;19;20097;-72
2022/09/18 03:03:37;;;;;;;5.00;1.67;;;;;;;9.68;84.78;98341.03;7392294;19;20014;-73
2022/09/18 03:06:07;;;;;;;10.70;2.30;;;;;;;9.71;84.14;98341.72;7390350;19;20011;-73
2022/09/18 03:08:35;;;;;;;4.93;1.50;;;;;;;9.62;83.94;98336.38;7391409;19;20651;-73
2022/09/18 03:11:03;;;;;;;5.68;1.85;;;;;;;9.74;84.34;98331.72;7392001;19;20047;-72
2022/09/18 03:13:31;;;;;;;5.30;1.90;;;;;;;9.75;84.52;98330.72;7389973;19;20029;-73
2022/09/18 03:15:57;;;;;;;3.53;1.48;;;;;;;9.74;84.78;98325.56;7385163;19;22953;-73
2022/09/18 03:18:25;;;;;;;2.28;1.83;;;;;;;9.77;84.85;98325.25;7388903;19;20021;-73
2022/09/18 03:20:54;;;;;;;5.15;1.77;;;;;;;9.74;84.69;98322.94;7392402;19;20029;-73
2022/09/18 03:23:22;;;;;;;5.63;1.80;;;;;;;9.56;83.56;98315.84;7393949;19;20023;-73
2022/09/18 03:25:52;;;;;;;2.78;1.80;;;;;;;9.58;84.51;98316.50;7392349;19;20026;-73
2022/09/18 03:28:19;;;;;;;4.40;1.60;;;;;;;9.61;85.14;98312.75;7389529;19;20050;-73
2022/09/18 03:30:46;;;;;;;3.17;1.38;;;;;;;9.64;84.93;98312.47;7389624;19;20042;-72
2022/09/18 03:33:13;;;;;;;3.47;1.70;;;;;;;9.61;85.73;98308.31;7390225;19;20014;-73
2022/09/18 03:35:42;;;;;;;3.30;1.80;;;;;;;9.63;85.57;98306.31;7391475;19;20018;-73
2022/09/18 03:38:09;;;;;;;4.35;1.90;;;;;;;9.63;85.88;98308.16;7389913;19;20038;-72
2022/09/18 03:40:36;;;;;;;4.38;1.70;;;;;;;9.66;85.37;98318.41;7392747;19;20119;-73
2022/09/18 03:43:04;;;;;;;4.95;1.70;;;;;;;9.63;85.00;98311.59;7392929;19;20032;-73
2022/09/18 03:45:31;;;;;;;2.88;1.85;;;;;;;9.65;85.50;98314.94;7390529;19;20023;-73
2022/09/18 03:47:59;;;;;;;3.63;1.85;;;;;;;9.65;84.95;98314.94;7388186;19;20035;-72
2022/09/18 03:50:26;;;;;;;5.00;1.52;;;;;;;9.70;85.19;98324.22;7386651;19;20021;-72
2022/09/18 03:52:54;;;;;;;2.80;1.77;;;;;;;9.76;85.49;98332.38;7387433;19;20482;-72
2022/09/18 03:55:41;;;;;;;6.13;1.80;;;;;;;9.70;85.67;98329.50;7391156;19;20362;-73
2022/09/18 03:58:43;;;;;;;5.70;1.60;;;;;;;9.79;85.33;98324.13;7390535;19;20022;-72
2022/09/18 04:01:27;;;;;;;4.88;1.85;;;;;;;9.72;85.04;98327.56;7390870;19;20073;-73
2022/09/18 04:04:23;;;;;;;3.95;1.65;;;;;;;9.58;84.78;98331.53;7385826;19;20091;-72
2022/09/18 04:07:10;;;;;;;4.35;1.50;;;;;;;9.68;85.16;98330.47;7384193;19;20420;-73
2022/09/18 04:10:12;;;;;;;4.28;1.60;;;;;;;9.72;85.64;98340.75;7385945;19;20031;-73
2022/09/18 04:12:39;;;;;;;4.10;2.20;;;;;;;9.66;85.54;98343.03;7389004;19;20030;-73
2022/09/18 04:15:18;;;;;;;4.72;1.88;;;;;;;9.67;85.31;98334.09;7389946;19;20025;-73
2022/09/18 04:17:46;;;;;;;3.97;1.60;;;;;;;9.68;85.08;98343.69;7389449;19;20043;-73
2022/09/18 04:20:13;;;;;;;3.80;1.63;;;;;;;9.71;85.49;98336.44;7387799;19;20545;-72
2022/09/18 04:22:41;;;;;;;5.07;1.70;;;;;;;9.62;85.10;98328.44;7386120;19;20008;-72
2022/09/18 04:25:08;;;;;;;5.60;1.70;;;;;;;9.64;84.78;98329.13;7388733;19;20069;-72
2022/09/18 04:27:35;;;;;;;2.03;1.23;;;;;;;9.63;85.02;98332.75;7388953;19;20010;-73
2022/09/18 04:30:02;;;;;;;2.75;1.45;;;;;;;9.62;85.00;98333.72;7387649;19;20022;-73
2022/09/18 04:32:31;;;;;;;3.95;1.40;;;;;;;9.69;84.64;98336.63;7391260;19;20018;-73
2022/09/18 04:34:58;;;;;;;3.53;1.60;;;;;;;9.64;84.99;98337.06;7391370;19;20098;-72
2022/09/18 04:37:25;;;;;;;5.03;1.70;;;;;;;9.71;84.76;98342.56;7385708;19;20378;-72
2022/09/18 04:39:52;;;;;;;2.35;1.15;;;;;;;9.71;84.75;98337.28;7386530;19;20012;-72
2022/09/18 04:42:19;;;;;;;3.25;1.40;;;;;;;9.72;85.29;98338.13;7387875;19;20014;-72
2022/09/18 04:44:46;;;;;;;4.95;1.85;;;;;;;9.68;85.91;98340.22;7388479;19;20026;-73
2022/09/18 04:47:14;;;;;;;3.72;1.70;;;;;;;9.74;84.62;98333.50;7388915;19;20023;-73
2022/09/18 04:49:40;;;;;;;7.18;2.13;;;;;;;9.73;84.92;98339.78;7389388;19;20362;-72
2022/09/18 04:52:07;;;;;;;6.20;1.73;;;;;;;9.77;85.32;98338.47;7386542;19;20866;-72
2022/09/18 04:54:34;;;;;;;3.13;1.52;;;;;;;9.82;84.87;98334.41;7384491;19;20070;-72
2022/09/18 04:57:02;;;;;;;2.58;1.52;;;;;;;9.82;85.37;98333.56;7383914;19;20021;-72
2022/09/18 04:59:29;;;;;;;3.33;1.38;;;;;;;9.84;84.95;98336.88;7390894;19;20039;-72
2022/09/18 05:01:57;;;;;;;1.38;1.10;;;;;;;9.79;84.51;98326.78;7387552;19;20022;-72
2022/09/18 05:04:25;;;;;;;5.28;1.67;;;;;;;9.82;84.94;98336.22;7388349;19;20584;-73
2022/09/18 05:07:02;;;;;;;10.30;1.90;;;;;;;9.84;84.99;98336.88;7382989;19;20022;-72
2022/09/18 05:09:29;;;;;;;4.00;2.08;;;;;;;9.79;84.67;98339.16;7389571;19;20018;-73
2022/09/18 05:11:56;;;;;;;4.72;1.67;;;;;;;9.84;85.19;98344.81;7382664;19;20041;-72
2022/09/18 05:14:23;;;;;;;5.15;1.65;;;;;;;9.77;84.70;98343.75;7383372;19;20014;-72
2022/09/18 05:16:55;;;;;;;8.95;1.77;;;;;;;9.82;84.87;98352.91;7382963;19;20027;-72
2022/09/18 05:19:28;;;;;;;2.40;1.80;;;;;;;9.85;85.06;98346.50;7387699;19;20036;-72
2022/09/18 05:22:01;;;;;;;3.72;2.15;;;;;;;9.91;85.26;98353.81;7387396;19;20022;-72
2022/09/18 05:24:31;;;;;;;3.55;1.60;;;;;;;9.92;85.17;98359.91;7382982;19;20486;-72
2022/09/18 05:26:58;;;;;;;2.25;1.60;;;;;;;9.85;85.72;98354.44;7385832;19;20094;-72
2022/09/18 05:29:25;;;;;;;8.07;1.90;;;;;;;9.75;84.66;98357.13;7383657;19;20018;-72
2022/09/18 05:31:59;;;;;;;6.47;2.30;;;;;;;9.71;85.76;98355.75;7387291;19;20014;-72
2022/09/18 05:34:25;;;;;;;3.97;2.08;;;;;;;9.88;85.54;98356.75;7387019;19;20371;-72
2022/09/18 05:36:52;;;;;;;4.07;2.08;;;;;;;9.82;85.61;98355.56;7386448;19;20026;-72
2022/09/18 05:39:20;;;;;;;4.43;2.10;;;;;;;9.90;85.73;98360.09;7387313;19;20012;-72
2022/09/18 05:41:49;;;;;;;6.43;2.05;;;;;;;9.86;85.79;98353.44;7387399;19;20010;-72
2022/09/18 05:44:17;;;;;;;3.08;2.15;;;;;;;9.83;85.58;98359.03;7382935;19;20025;-72
2022/09/18 05:46:48;;;;;;;6.50;2.28;;;;;;;9.91;84.85;98360.91;7381439;19;20029;-73
2022/09/18 05:49:15;;;;;;;5.28;2.17;;;;;;;9.74;84.59;98371.34;7386965;19;20025;-72
2022/09/18 05:51:43;;;;;;;4.90;1.83;;;;;;;9.84;85.01;98369.44;7387688;19;20053;-72
2022/09/18 05:54:11;;;;;;;4.88;2.28;;;;;;;9.87;85.20;98366.50;7384101;19;20390;-72
2022/09/18 05:56:46;;;;;;;5.95;2.30;;;;;;;9.81;84.99;98372.38;7386230;19;20082;-72
2022/09/18 05:59:13;;;;;;;4.60;2.42;;;;;;;9.84;85.20;98374.72;7386445;19;20014;-72
2022/09/18 06:01:43;;;;;;;10.88;3.03;;;;;;;9.82;86.02;98381.13;7380337;19;20138;-73
2022/09/18 06:04:12;;;;;;;2.85;2.20;;;;;;;9.86;86.00;98378.03;7383316;19;20057;-72
2022/09/18 06:07:00;;;;;;;4.47;2.40;;;;;;;10.02;85.67;98380.00;7387076;19;20022;-72
2022/09/18 06:09:27;;;;;;;3.40;2.55;;;;;;;10.01;85.84;98378.34;7388103;19;20077;-71
2022/09/18 06:11:54;;;;;;;5.18;2.50;;;;;;;10.07;85.84;98375.09;7386686;19;20018;-72
2022/09/18 06:14:21;;;;;;;7.38;2.80;;;;;;;10.01;85.79;98375.69;7385226;19;20021;-72
2022/09/18 06:16:48;;;;;;;6.90;2.80;;;;;;;10.03;85.81;98376.38;7384582;19;20026;-72
2022/09/18 06:19:15;;;;;;;6.60;2.38;;;;;;;10.14;85.69;98377.97;7383280;19;20353;-72
2022/09/18 06:21:45;;;;;;;4.97;2.28;;;;;;;10.06;86.08;98380.53;7386786;19;20010;-72
2022/09/18 06:24:15;;;;;;;7.55;2.78;;;;;;;10.11;85.26;98387.03;7384168;19;20014;-72
2022/09/18 06:27:08;;;;;;;2.97;2.33;;;;;;;10.10;85.54;98384.53;7384736;19;20056;-72
2022/09/18 06:29:35;;;;;;;4.13;2.90;;;;;;;10.03;85.70;98389.59;7388483;19;20436;-72
2022/09/18 06:32:09;;;;;;;7.18;2.70;;;;;;;9.92;85.26;98389.81;7386749;19;20018;-72
2022/09/18 06:34:38;;;;;;;5.20;2.70;;;;;;;10.00;85.77;98391.69;7385142;19;20674;-73
2022/09/18 06:37:11;;;;;;;4.60;2.75;;;;;;;9.92;85.47;98387.16;7377218;19;20055;-72
2022/09/18 06:39:40;;;;;;;3.88;2.40;;;;;;;10.01;85.67;98390.75;7384963;19;20018;-72
2022/09/18 06:42:12;;;;;;;8.70;3.42;;;;;;;10.09;85.59;98380.22;7384212;19;20014;-72
2022/09/18 06:44:59;;;;;;;5.07;2.58;;;;;;;10.15;85.72;98378.78;7384347;19;20014;-72
2022/09/18 06:47:28;;;;;;;5.70;3.00;;;;;;;10.23;85.18;98373.56;7379389;19;20022;-72
2022/09/18 06:49:55;;;;;;;8.75;3.13;;;;;;;10.33;85.87;98367.22;7384605;19;20050;-71
2022/09/18 06:52:24;;;;;;;3.97;2.50;;;;;;;10.48;84.82;98374.63;7381773;19;20217;-72
2022/09/18 06:54:54;;;;;;;3.53;2.28;;;;;;;10.45;85.07;98370.47;7381287;19;20026;-72
2022/09/18 06:57:31;;;;;;;4.30;2.08;;;;;;;10.43;84.51;98375.06;7380033;19;20025;-72
2022/09/18 06:59:58;;;;;;;6.22;2.45;;;;;;;10.58;84.52;98377.13;7384719;19;20046;-72
2022/09/18 07:02:27;;;;;;;5.47;3.10;;;;;;;10.50;84.17;98384.03;7384452;19;20018;-72
2022/09/18 07:05:02;;;;;;;6.78;2.90;;;;;;;10.35;84.77;98390.03;7384166;19;20015;-72
2022/09/18 07:07:29;;;;;;;8.50;2.88;;;;;;;10.28;85.38;98384.53;7379662;19;20014;-72
2022/09/18 07:09:55;;;;;;;6.30;2.78;;;;;;;10.28;85.54;98390.66;7378381;19;20018;-72
2022/09/18 07:12:26;;;;;;;4.50;2.63;;;;;;;10.25;85.35;98392.75;7384396;19;20042;-72
2022/09/18 07:14:53;;;;;;;5.80;2.88;;;;;;;10.31;85.24;98384.22;7385479;19;20043;-72
2022/09/18 07:17:21;;;;;;;4.45;2.80;;;;;;;10.53;85.04;98388.19;7381574;19;20018;-72
2022/09/18 07:19:53;;;;;;;4.70;2.92;;;;;;;10.67;85.29;98379.69;7382430;19;20577;-72
2022/09/18 07:22:27;;;;;;;5.75;2.75;;;;;;;10.64;85.51;98380.00;7382446;19;20048;-72
2022/09/18 07:24:54;;;;;;;4.00;2.40;;;;;;;10.65;84.26;98386.13;7381676;19;20032;-73
2022/09/18 07:27:21;;;;;;;5.10;3.22;;;;;;;10.60;84.03;98386.59;7372459;19;20011;-72
2022/09/18 07:29:49;;;;;;;6.32;2.42;;;;;;;10.58;83.94;98385.06;7383195;19;20023;-72
2022/09/18 07:32:19;;;;;;;6.43;2.15;;;;;;;10.53;83.58;98391.69;7383200;19;20021;-72
2022/09/18 07:34:47;;;;;;;4.53;2.13;;;;;;;10.62;83.58;98394.38;7384720;19;20018;-72
2022/09/18 07:37:24;;;;;;;9.02;2.85;;;;;;;10.70;83.50;98389.13;7381820;19;20020;-73
2022/09/18 07:40:07;;;;;;;5.38;2.38;;;;;;;10.89;83.00;98399.50;7384951;19;20622;-73
2022/09/18 07:43:03;;;;;;;6.30;2.65;;;;;;;10.92;83.16;98401.81;7388118;19;20014;-73
2022/09/18 07:45:30;;;;;;;5.85;2.70;;;;;;;11.08;83.38;98398.41;7387273;19;20015;-73
2022/09/18 07:48:03;;;;;;;4.25;2.10;;;;;;;11.10;81.53;98398.28;7387155;19;20026;-73
2022/09/18 07:50:36;;;;;;;4.05;2.38;;;;;;;11.35;81.87;98400.03;7390304;19;20044;-73
2022/09/18 07:53:04;;;;;;;6.18;2.15;;;;;;;11.33;81.86;98404.66;7390339;19;20068;-73
2022/09/18 07:55:35;;;;;;;5.00;2.42;;;;;;;11.49;81.75;98403.06;7388554;19;20779;-74
2022/09/18 07:58:05;;;;;;;8.70;2.47;;;;;;;11.45;81.01;98407.84;7384300;19;20018;-73
2022/09/18 08:00:50;;;;;;;3.40;1.90;;;;;;;11.56;79.78;98404.09;7386767;19;20025;-73
2022/09/18 08:03:19;;;;;;;5.13;1.95;;;;;;;11.21;80.88;98408.56;7389365;19;20026;-74
2022/09/18 08:05:53;;;;;;;8.38;2.35;;;;;;;11.24;81.24;98408.25;7388645;19;20018;-73
2022/09/18 08:08:20;;;;;;;4.40;2.55;;;;;;;11.57;81.56;98408.41;7392475;19;20039;-73
2022/09/18 08:11:12;;;;;;;6.53;2.25;;;;;;;11.51;79.45;98414.34;7391178;19;20018;-74
2022/09/18 08:14:05;;;;;;;5.03;1.50;;;;;;;11.03;80.08;98408.66;7391168;19;20536;-74
2022/09/18 08:16:52;;;;;;;3.25;1.92;;;;;;;11.11;78.60;98408.72;7386431;19;20018;-75
2022/09/18 08:19:52;;;;;;;5.07;1.73;;;;;;;11.06;80.31;98407.50;7386653;19;20018;-74
2022/09/18 08:22:51;;;;;;;2.35;1.67;;;;;;;11.13;80.28;98433.19;7390176;19;20017;-73
2022/09/18 08:25:22;;;;;;;3.45;1.40;;;;;;;11.25;77.78;98420.53;7387723;19;20117;-75
2022/09/18 08:27:49;;;;;;;1.80;1.15;;;;;;;11.37;77.74;98419.25;7388055;19;20077;-74
2022/09/18 08:30:27;;;;;;;1.23;1.13;;;;;;;11.29;77.11;98423.69;7387802;19;20006;-74
2022/09/18 08:32:59;;;;;;;4.38;1.35;;;;;;;11.54;77.29;98416.66;7385191;19;20024;-74
2022/09/18 08:35:27;;;;;;;2.45;1.63;;;;;;;11.39;76.02;98417.25;7387658;19;20388;-74
2022/09/18 08:37:59;;;;;;;5.40;1.30;;;;;;;11.56;78.27;98422.66;7389561;19;20048;-74
2022/09/18 08:41:26;;;;;;;4.25;1.23;;;;;;;11.60;76.01;98416.84;7389493;19;20029;-72
2022/09/18 08:44:12;;;;;;;3.88;1.27;;;;;;;11.63;75.41;98413.84;7388680;19;20022;-74
2022/09/18 08:46:55;;;;;;;3.97;1.10;;;;;;;11.83;75.83;98410.94;7384839;19;20100;-73
2022/09/18 08:49:34;;;;;;;7.30;1.90;;;;;;;12.05;74.24;98406.84;7383347;19;20021;-73
2022/09/18 08:52:17;;;;;;;5.60;1.27;;;;;;;12.68;72.78;98408.00;7387003;19;20111;-75
2022/09/18 08:54:55;;;;;;;7.13;1.63;;;;;;;12.24;75.55;98409.22;7385340;19;20101;-75
2022/09/18 08:57:48;;;;;;;4.20;1.48;;;;;;;12.61;73.92;98410.53;7384746;19;20046;-75
2022/09/18 09:00:43;;;;;;;3.45;1.45;;;;;;;12.18;73.83;98407.19;7387490;19;20022;-75
2022/09/18 09:03:40;;;;;;;2.90;1.10;;;;;;;12.20;74.24;98407.88;7386860;19;20019;-75
2022/09/18 09:06:07;;;;;;;2.63;1.27;;;;;;;12.20;74.94;98409.69;7377219;19;20115;-75
2022/09/18 09:08:53;;;;;;;6.18;1.38;;;;;;;12.05;76.06;98414.81;7383841;19;20018;-74
2022/09/18 09:11:31;;;;;;;3.75;1.42;;;;;;;12.44;74.68;98417.66;7385738;19;20021;-76
2022/09/18 09:14:09;;;;;;;2.67;2.25;;;;;;;12.53;72.50;98415.81;7383216;19;20077;-74
2022/09/18 09:16:47;;;;;;;6.38;1.95;;;;;;;12.40;71.83;98421.66;7383961;19;20018;-74
2022/09/18 09:19:16;;;;;;;5.70;2.53;;;;;;;12.04;72.76;98435.19;7387623;19;20015;-75
2022/09/18 09:21:43;;;;;;;3.67;1.85;;;;;;;12.04;74.12;98434.38;7384685;19;20018;-72
2022/09/18 09:24:38;;;;;;;3.28;1.50;;;;;;;12.05;71.74;98434.19;7381321;19;20022;-74
2022/09/18 09:27:33;;;;;;;5.15;1.67;;;;;;;11.92;73.12;98433.03;7381143;19;20116;-74
2022/09/18 09:30:14;;;;;;;5.78;1.63;;;;;;;11.99;73.46;98423.44;7384059;19;20011;-75
2022/09/18 09:33:20;;;;;;;2.78;1.45;;;;;;;12.26;75.10;98425.75;7386825;19;20107;-74
2022/09/18 09:36:20;;;;;;;4.65;1.80;;;;;;;12.14;73.83;98420.94;7381609;19;20113;-74
2022/09/18 09:38:52;;;;;;;4.18;1.60;;;;;;;12.19;71.68;98413.31;7383126;19;20351;-74
2022/09/18 09:41:24;;;;;;;4.97;1.30;;;;;;;12.25;73.54;98413.50;7381749;19;20035;-75
2022/09/18 09:44:29;;;;;;;4.47;1.10;;;;;;;12.35;73.41;98408.03;7384106;19;20519;-74
2022/09/18 09:47:03;;;;;;;3.50;1.42;;;;;;;12.57;71.20;98406.53;7379913;19;20031;-74
2022/09/18 09:49:39;;;;;;;6.65;1.77;;;;;;;12.71;71.50;98411.13;7386486;19;20019;-74
2022/09/18 09:52:24;;;;;;;5.68;1.50;;;;;;;13.27;71.22;98407.72;7386888;19;20029;-76
2022/09/18 09:55:04;;;;;;;2.75;1.42;;;;;;;13.06;71.26;98403.78;7384812;19;20018;-76
2022/09/18 09:57:40;;;;;;;3.67;1.30;;;;;;;13.04;69.96;98408.44;7376644;19;20014;-75
2022/09/18 10:00:18;;;;;;;4.75;1.23;;;;;;;12.95;71.98;98409.44;7385517;19;20014;-75
2022/09/18 10:03:20;;;;;;;5.10;1.30;;;;;;;12.98;69.05;98411.78;7382929;19;20022;-76
2022/09/18 10:05:49;;;;;;;3.70;1.55;;;;;;;12.88;70.88;98404.00;7382099;19;20018;-75
2022/09/18 10:08:27;;;;;;;2.65;1.27;;;;;;;12.77;72.67;98404.34;7384215;19;20014;-76
2022/09/18 10:10:58;;;;;;;3.55;1.42;;;;;;;13.04;71.32;98412.91;7384179;19;20026;-75
2022/09/18 10:13:33;;;;;;;3.58;2.00;;;;;;;13.35;71.48;98418.34;7377629;19;20085;-73
2022/09/18 10:16:04;;;;;;;7.18;1.23;;;;;;;13.55;70.05;98408.91;7384200;19;20028;-75
2022/09/18 10:18:34;;;;;;;2.55;1.48;;;;;;;13.68;69.46;98410.19;7389891;19;20015;-75
2022/09/18 10:21:08;;;;;;;3.63;1.50;;;;;;;13.65;70.49;98407.88;7384844;19;20035;-75
2022/09/18 10:23:39;;;;;;;;;;;;;;;13.90;67.63;98398.78;7383723;19;20588;-75
2022/09/18 10:26:12;;;;;;;3.42;1.05;;;;;;;14.23;68.16;98404.66;7385651;19;19930;-76
2022/09/18 10:28:39;;;;;;;2.20;1.10;;;;;;;14.07;65.20;98398.66;7383248;19;20011;-75
2022/09/18 10:31:10;;;;;;;5.70;1.30;;;;;;;14.01;67.98;98398.34;7381261;19;20440;-74
2022/09/18 10:33:46;;;;;;;11.13;1.40;;;;;;;14.43;67.04;98394.38;7382871;19;20027;-74
2022/09/18 10:36:36;;;;;;;4.50;1.17;;;;;;;14.01;66.40;98401.00;7381169;19;20085;-74
2022/09/18 10:39:35;;;;;;;3.03;1.02;;;;;;;14.12;67.91;98396.28;7384239;19;20014;-75
2022/09/18 10:42:15;;;;;;;2.63;1.08;;;;;;;14.59;64.69;98395.25;7383745;19;20029;-75
2022/09/18 10:44:48;;;;;;;6.70;1.70;;;;;;;14.62;63.67;98395.72;7380953;19;20014;-75
2022/09/18 10:47:36;;;;;;;7.82;1.45;;;;;;;15.18;62.13;98387.28;7377388;19;20386;-75
2022/09/18 10:50:05;;;;;;;6.75;1.17;;;;;;;15.28;60.80;98382.50;7385005;19;20030;-75
2022/09/18 10:52:36;;;;;;;4.20;1.05;;;;;;;15.26;62.75;98384.53;7384227;19;20025;-74
2022/09/18 10:55:19;;;;;;;5.75;1.23;;;;;;;15.22;60.63;98383.25;7382963;19;20545;-75
2022/09/18 10:58:02;;;;;;;5.20;1.30;;;;;;;15.02;62.76;98379.50;7383112;19;20014;-75
2022/09/18 11:00:36;;;;;;;2.75;0.82;;;;;;;14.69;61.85;98382.50;7384912;19;20014;-75
2022/09/18 11:03:42;;;;;;;1.88;0.95;;;;;;;14.70;63.53;98374.34;7382193;19;20113;-75
2022/09/18 11:06:22;;;;;;;3.38;0.88;;;;;;;14.90;62.10;98371.13;7381134;19;20106;-75
2022/09/18 11:08:58;;;;;;;3.05;0.93;;;;;;;15.37;59.45;98362.72;7378451;19;20484;-75
2022/09/18 11:11:30;;;;;;;4.82;1.10;;;;;;;15.02;56.82;98364.34;7384713;19;20493;-75
2022/09/18 11:14:15;;;;;;;5.20;0.75;;;;;;;15.14;61.77;98370.84;7385681;19;20022;-74
2022/09/18 11:16:55;;;;;;;4.00;1.00;;;;;;;15.23;59.24;98368.91;7387974;19;20511;-75
2022/09/18 11:19:36;;;;;;;2.95;1.00;;;;;;;15.58;58.39;98356.59;7387538;19;20022;-72
2022/09/18 11:22:32;;;;;;;3.33;0.73;;;;;;;15.12;58.02;98366.72;7390412;19;20014;-73
2022/09/18 11:25:13;;;;;;;2.33;0.73;;;;;;;15.17;57.70;98353.69;7387122;19;20010;-73
2022/09/18 11:27:52;;;;;;;3.92;1.38;;;;;;;14.65;58.61;98357.25;7391106;19;20045;-73
2022/09/18 11:30:28;;;;;;;4.18;0.80;;;;;;;14.81;59.46;98348.25;7391476;19;20014;-73
2022/09/18 11:33:13;;;;;;;2.25;0.70;;;;;;;14.96;58.82;98345.63;7392555;19;20006;-73
2022/09/18 11:35:44;;;;;;;3.70;1.00;;;;;;;14.53;60.37;98346.22;7385851;19;20039;-72
2022/09/18 11:38:15;;;;;;;3.78;0.98;;;;;;;14.47;58.45;98330.94;7387473;19;20010;-73
2022/09/18 11:40:50;;;;;;;1.25;0.63;;;;;;;14.79;57.33;98313.81;7391235;19;20090;-72
2022/09/18 11:43:31;;;;;;;2.95;1.08;;;;;;;14.26;58.42;98328.97;7389583;19;20019;-72
2022/09/18 11:46:12;;;;;;;3.42;0.47;;;;;;;14.17;60.12;98327.41;7386822;19;20019;-73
2022/09/18 11:48:55;;;;;;;3.78;0.82;;;;;;;14.68;58.02;98316.94;7390170;19;20029;-73
2022/09/18 11:51:53;;;;;;;1.90;0.85;;;;;;;15.40;58.44;98310.88;7390503;19;20011;-74
2022/09/18 11:54:40;;;;;;;1.77;0.70;;;;;;;15.66;56.38;98305.00;7383608;19;20025;-71
2022/09/18 11:57:21;;;;;;;3.45;0.70;;;;;;;15.24;53.94;98314.59;7382695;19;20019;-73
2022/09/18 12:00:04;;;;;;;3.53;0.60;;;;;;;15.02;57.83;98307.56;7389817;19;20381;-74
2022/09/18 12:02:48;;;;;;;2.08;0.60;;;;;;;15.45;54.15;98304.97;7390575;19;20021;-73
2022/09/18 12:05:32;;;;;;;3.35;0.95;;;;;;;15.07;55.50;98313.16;7389629;19;20026;-73
2022/09/18 12:07:58;;;;;;;;;;;;;;;15.15;55.03;98299.72;7386719;19;20121;-72
2022/09/18 12:10:48;;;;;;;5.15;1.17;;;;;;;15.19;54.74;98309.00;7383819;19;19931;-73
2022/09/18 12:13:37;;;;;;;2.42;0.65;;;;;;;15.29;56.02;98309.53;7387433;19;20014;-73